Time;durP1;ratioP1;P1;durP2;ratioP2;P2;SDS_P1;SDS_P2;PMS_P1;PMS_P2;Temp;Humidity;BMP_temperature;BMP_pressure;BME280_temperature;BME280_humidity;BME280_pressure;Samples;Min_cycle;Max_cycle;Signal;HPM_P1;HPM_P2
2023/07/08 00:00:22;;;;;;;;;;;;;;;18.95;100.00;101006.92;107668;1254;109255;-61
2023/07/08 00:03:11;;;;;;;;;;;;;;;18.98;100.00;101009.09;107500;1254;108035;-61
2023/07/08 00:05:40;;;;;;;;;;;;;;;19.01;100.00;101006.08;107615;1251;97694;-62
2023/07/08 00:08:11;;;;;;;;;;;;;;;19.01;100.00;101011.24;107663;1251;98381;-62
2023/07/08 00:10:40;;;;;;;;;;;;;;;19.02;100.00;101006.10;107598;1251;111139;-62
2023/07/08 00:13:08;;;;;;;;;;;;;;;19.04;100.00;101007.85;107537;1250;110181;-64
2023/07/08 00:15:37;;;;;;;;;;;;;;;19.04;100.00;101006.00;107486;1254;108221;-60
2023/07/08 00:18:13;;;;;;;;;;;;;;;19.05;100.00;101005.68;107523;1251;97859;-62
2023/07/08 00:20:41;;;;;;;;;;;;;;;19.06;100.00;101003.77;107631;1251;97797;-62
2023/07/08 00:23:09;;;;;;;;;;;;;;;19.06;100.00;101000.83;107509;1251;112187;-60
2023/07/08 00:25:38;;;;;;;;;;;;;;;19.06;99.66;100999.87;107595;1251;110084;-61
2023/07/08 00:28:13;;;;;;;;;;;;;;;19.06;99.20;100996.05;107575;1255;107427;-61
2023/07/08 00:30:42;;;;;;;;;;;;;;;19.05;98.66;101001.20;107586;1255;97848;-62
2023/07/08 00:33:10;;;;;;;;;;;;;;;19.05;98.61;100997.11;107621;1252;97710;-61
2023/07/08 00:35:43;;;;;;;;;;;;;;;19.07;98.43;100998.20;107536;1251;111761;-63
2023/07/08 00:38:20;;;;;;;;;;;;;;;19.03;97.30;100996.98;107471;1251;108546;-62
2023/07/08 00:40:53;;;;;;;;;;;;;;;19.03;97.49;100995.65;107550;1254;108871;-64
2023/07/08 00:43:24;;;;;;;;;;;;;;;18.96;96.79;100995.52;107427;1251;97835;-62
2023/07/08 00:46:00;;;;;;;;;;;;;;;18.91;96.71;100996.83;107588;1253;97847;-62
2023/07/08 00:48:34;;;;;;;;;;;;;;;18.88;97.15;100996.62;107556;1251;111770;-65
2023/07/08 00:51:02;;;;;;;;;;;;;;;18.85;97.63;100996.62;107502;1251;109751;-63
2023/07/08 00:53:32;;;;;;;;;;;;;;;18.83;97.78;100991.13;107450;1251;108261;-61
2023/07/08 00:56:03;;;;;;;;;;;;;;;18.82;98.04;100995.05;107509;1251;97918;-61
2023/07/08 00:58:33;;;;;;;;;;;;;;;18.84;98.38;101000.24;107508;1254;98094;-61
2023/07/08 01:01:04;;;;;;;;;;;;;;;18.80;98.42;100997.05;107499;1251;112044;-62
2023/07/08 01:03:36;;;;;;;;;;;;;;;18.75;99.27;101003.47;107476;1251;110258;-62
2023/07/08 01:06:07;;;;;;;;;;;;;;;18.69;99.61;101004.34;107604;1251;108421;-62
2023/07/08 01:08:35;;;;;;;;;;;;;;;18.61;100.00;101003.63;107486;1250;97864;-60
2023/07/08 01:11:04;;;;;;;;;;;;;;;18.57;100.00;101011.63;107516;1251;97701;-61
2023/07/08 01:13:35;;;;;;;;;;;;;;;18.54;99.92;101002.52;107522;1251;111441;-62
2023/07/08 01:16:06;;;;;;;;;;;;;;;18.54;99.91;101007.08;107509;1251;110535;-63
2023/07/08 01:18:36;;;;;;;;;;;;;;;18.53;100.00;101008.23;107474;1251;109102;-61
2023/07/08 01:21:06;;;;;;;;;;;;;;;18.55;99.93;101009.66;107457;1251;97794;-62
2023/07/08 01:23:35;;;;;;;;;;;;;;;18.48;100.00;101009.89;107530;1251;97817;-63
2023/07/08 01:26:04;;;;;;;;;;;;;;;18.40;100.00;101009.27;107607;1251;112253;-60
2023/07/08 01:28:32;;;;;;;;;;;;;;;18.36;100.00;101017.21;107475;1254;109308;-63
2023/07/08 01:31:00;;;;;;;;;;;;;;;18.37;100.00;101021.17;107496;1251;108190;-60
2023/07/08 01:33:34;;;;;;;;;;;;;;;18.34;100.00;101013.23;107472;1251;97765;-61
2023/07/08 01:36:02;;;;;;;;;;;;;;;18.29;100.00;101017.02;107457;1251;97838;-61
2023/07/08 01:38:32;;;;;;;;;;;;;;;18.24;100.00;101016.07;107642;1253;111714;-61
2023/07/08 01:41:00;;;;;;;;;;;;;;;18.14;100.00;101018.95;107615;1251;109963;-61
2023/07/08 01:43:29;;;;;;;;;;;;;;;18.06;100.00;101022.39;107604;1251;106229;-61
2023/07/08 01:46:00;;;;;;;;;;;;;;;17.97;100.00;101027.66;107617;1251;97803;-64
2023/07/08 01:48:33;;;;;;;;;;;;;;;17.93;100.00;101030.11;107639;1251;97835;-62
2023/07/08 01:51:04;;;;;;;;;;;;;;;17.89;100.00;101022.91;107577;1251;112807;-61
2023/07/08 01:53:34;;;;;;;;;;;;;;;17.86;100.00;101027.45;107498;1252;110512;-64
2023/07/08 01:56:03;;;;;;;;;;;;;;;17.79;100.00;101029.83;107615;1251;108238;-63
2023/07/08 01:58:31;;;;;;;;;;;;;;;17.68;100.00;101032.65;107507;1251;97843;-60
2023/07/08 02:01:00;;;;;;;;;;;;;;;17.59;100.00;101038.56;107638;1251;97749;-61
2023/07/08 02:03:29;;;;;;;;;;;;;;;17.57;100.00;101037.70;107517;1254;111297;-60
2023/07/08 02:05:57;;;;;;;;;;;;;;;17.52;100.00;101041.34;107610;1253;108850;-60
2023/07/08 02:08:26;;;;;;;;;;;;;;;17.47;100.00;101041.58;107612;1254;107308;-61
2023/07/08 02:10:55;;;;;;;;;;;;;;;17.36;100.00;101039.84;107610;1251;97869;-61
2023/07/08 02:13:24;;;;;;;;;;;;;;;17.28;100.00;101040.53;107505;1251;97736;-61
2023/07/08 02:15:53;;;;;;;;;;;;;;;17.19;100.00;101046.51;107506;1251;111574;-60
2023/07/08 02:18:23;;;;;;;;;;;;;;;17.11;100.00;101040.00;107634;1251;108623;-62
2023/07/08 02:20:51;;;;;;;;;;;;;;;17.05;100.00;101043.33;107594;1253;107384;-61
2023/07/08 02:23:20;;;;;;;;;;;;;;;16.98;100.00;101041.61;107596;1254;97800;-60
2023/07/08 02:25:55;;;;;;;;;;;;;;;16.99;100.00;101047.08;107528;1251;97742;-62
2023/07/08 02:28:23;;;;;;;;;;;;;;;16.96;100.00;101048.69;107492;1251;111469;-61
2023/07/08 02:30:51;;;;;;;;;;;;;;;16.95;100.00;101050.42;107662;1251;109413;-60
2023/07/08 02:33:20;;;;;;;;;;;;;;;16.95;100.00;101045.59;107505;1251;108145;-62
2023/07/08 02:35:48;;;;;;;;;;;;;;;16.88;100.00;101041.31;107435;1254;97825;-61
2023/07/08 02:38:16;;;;;;;;;;;;;;;16.77;100.00;101039.30;107447;1254;98029;-61
2023/07/08 02:40:44;;;;;;;;;;;;;;;16.60;100.00;101032.91;107456;1251;110900;-62
2023/07/08 02:43:13;;;;;;;;;;;;;;;16.44;100.00;101035.73;107482;1251;109361;-62
2023/07/08 02:45:41;;;;;;;;;;;;;;;16.30;100.00;101045.31;107434;1251;107132;-61
2023/07/08 02:48:09;;;;;;;;;;;;;;;16.19;100.00;101049.08;107592;1251;97845;-62
2023/07/08 02:50:37;;;;;;;;;;;;;;;16.09;100.00;101045.40;107485;1251;97806;-62
2023/07/08 02:53:05;;;;;;;;;;;;;;;16.00;100.00;101038.45;107502;1251;111857;-62
2023/07/08 02:55:33;;;;;;;;;;;;;;;15.89;100.00;101036.53;107481;1254;108782;-62
2023/07/08 02:58:00;;;;;;;;;;;;;;;15.79;100.00;101036.64;107625;1254;108991;-62
2023/07/08 03:00:28;;;;;;;;;;;;;;;15.72;100.00;101033.27;107457;1253;97797;-61
2023/07/08 03:02:56;;;;;;;;;;;;;;;15.66;100.00;101034.64;107461;1251;97953;-63
2023/07/08 03:05:25;;;;;;;;;;;;;;;15.63;100.00;101042.30;107469;1251;111431;-62
2023/07/08 03:07:53;;;;;;;;;;;;;;;15.62;100.00;101044.43;107617;1251;110929;-62
2023/07/08 03:10:21;;;;;;;;;;;;;;;15.58;100.00;101046.41;107697;1255;106557;-60
2023/07/08 03:12:49;;;;;;;;;;;;;;;15.54;100.00;101049.99;107476;1257;97814;-61
2023/07/08 03:15:18;;;;;;;;;;;;;;;15.52;100.00;101049.23;107645;1254;97825;-61
2023/07/08 03:17:46;;;;;;;;;;;;;;;15.54;100.00;101054.13;107515;1250;111582;-62
2023/07/08 03:20:14;;;;;;;;;;;;;;;15.57;100.00;101055.24;107546;1251;109048;-61
2023/07/08 03:22:42;;;;;;;;;;;;;;;15.64;100.00;101057.96;107568;1251;107541;-63
2023/07/08 03:25:11;;;;;;;;;;;;;;;15.69;100.00;101059.59;107569;1256;97886;-60
2023/07/08 03:27:39;;;;;;;;;;;;;;;15.74;100.00;101061.13;107607;1251;97730;-62
2023/07/08 03:30:08;;;;;;;;;;;;;;;15.76;100.00;101067.00;107511;1250;110820;-62
2023/07/08 03:32:36;;;;;;;;;;;;;;;15.76;100.00;101069.31;107546;1250;108590;-61
2023/07/08 03:35:05;;;;;;;;;;;;;;;15.76;100.00;101067.75;107486;1251;107256;-62
2023/07/08 03:37:33;;;;;;;;;;;;;;;15.74;100.00;101060.14;107512;1254;97895;-61
2023/07/08 03:40:03;;;;;;;;;;;;;;;15.75;100.00;101059.50;107509;1251;97713;-62
2023/07/08 03:42:32;;;;;;;;;;;;;;;15.77;100.00;101057.31;107487;1251;111860;-64
2023/07/08 03:45:00;;;;;;;;;;;;;;;15.78;100.00;101062.28;107499;1251;109912;-63
2023/07/08 03:47:28;;;;;;;;;;;;;;;15.74;100.00;101062.68;107537;1251;108413;-62
2023/07/08 03:49:57;;;;;;;;;;;;;;;15.72;100.00;101066.75;107471;1251;97800;-61
2023/07/08 03:52:25;;;;;;;;;;;;;;;15.74;100.00;101065.64;107522;1250;97858;-61
2023/07/08 03:54:53;;;;;;;;;;;;;;;15.74;100.00;101060.89;107707;1250;110975;-61
2023/07/08 03:57:21;;;;;;;;;;;;;;;15.74;100.00;101060.71;107579;1253;109492;-61
2023/07/08 03:59:49;;;;;;;;;;;;;;;15.70;100.00;101060.58;107643;1251;107716;-60
2023/07/08 04:02:17;;;;;;;;;;;;;;;15.69;100.00;101061.44;107577;1251;97833;-61
2023/07/08 04:04:46;;;;;;;;;;;;;;;15.69;100.00;101064.49;107553;1251;97831;-60
2023/07/08 04:07:14;;;;;;;;;;;;;;;15.72;100.00;101067.83;107528;1251;111770;-60
2023/07/08 04:09:46;;;;;;;;;;;;;;;15.75;100.00;101074.02;107669;1253;108255;-62
2023/07/08 04:12:14;;;;;;;;;;;;;;;15.79;100.00;101077.02;107525;1254;108645;-62
2023/07/08 04:14:42;;;;;;;;;;;;;;;15.82;100.00;101078.70;107442;1254;98248;-61
2023/07/08 04:17:11;;;;;;;;;;;;;;;15.86;100.00;101084.06;107514;1254;97876;-60
2023/07/08 04:19:39;;;;;;;;;;;;;;;15.88;100.00;101086.89;107621;1254;111217;-64
2023/07/08 04:22:07;;;;;;;;;;;;;;;15.89;100.00;101089.13;107583;1251;108970;-62
2023/07/08 04:24:36;;;;;;;;;;;;;;;15.86;100.00;101092.52;107577;1253;108564;-61
2023/07/08 04:27:04;;;;;;;;;;;;;;;15.86;100.00;101100.20;107555;1251;97845;-60
2023/07/08 04:29:32;;;;;;;;;;;;;;;15.85;100.00;101100.16;107579;1250;97842;-61
2023/07/08 04:32:00;;;;;;;;;;;;;;;15.86;100.00;101096.74;107541;1251;111264;-60
2023/07/08 04:34:28;;;;;;;;;;;;;;;15.89;100.00;101091.90;107615;1254;109799;-61
2023/07/08 04:36:57;;;;;;;;;;;;;;;15.92;100.00;101092.30;107584;1250;108308;-60
2023/07/08 04:39:25;;;;;;;;;;;;;;;15.91;100.00;101096.70;107464;1251;97796;-60
2023/07/08 04:41:53;;;;;;;;;;;;;;;15.94;100.00;101100.98;107525;1250;97806;-61
2023/07/08 04:44:22;;;;;;;;;;;;;;;15.94;100.00;101100.71;107527;1251;110861;-61
2023/07/08 04:46:55;;;;;;;;;;;;;;;15.95;100.00;101103.36;107500;1254;108651;-60
2023/07/08 04:49:24;;;;;;;;;;;;;;;15.99;100.00;101103.38;107664;1253;107751;-61
2023/07/08 04:51:52;;;;;;;;;;;;;;;16.03;100.00;101110.10;107576;1251;97986;-62
2023/07/08 04:54:20;;;;;;;;;;;;;;;16.03;100.00;101106.85;107524;1250;97853;-61
2023/07/08 04:56:49;;;;;;;;;;;;;;;16.05;100.00;101111.20;107512;1254;111123;-62
2023/07/08 04:59:18;;;;;;;;;;;;;;;16.06;100.00;101106.77;107600;1253;109221;-60
2023/07/08 05:01:47;;;;;;;;;;;;;;;16.13;100.00;101113.46;107563;1251;108732;-62
2023/07/08 05:04:18;;;;;;;;;;;;;;;16.19;100.00;101115.86;107307;1251;97835;-61
2023/07/08 05:06:46;;;;;;;;;;;;;;;16.24;100.00;101112.17;107620;1252;97918;-61
2023/07/08 05:09:14;;;;;;;;;;;;;;;16.20;100.00;101114.87;107595;1254;110977;-61
2023/07/08 05:11:44;;;;;;;;;;;;;;;16.23;100.00;101115.23;107626;1253;109248;-62
2023/07/08 05:14:13;;;;;;;;;;;;;;;16.35;100.00;101117.98;107606;1251;107825;-63
2023/07/08 05:16:44;;;;;;;;;;;;;;;16.38;100.00;101116.12;107583;1254;97817;-63
2023/07/08 05:19:22;;;;;;;;;;;;;;;16.40;100.00;101110.69;107616;1251;97695;-62
2023/07/08 05:21:55;;;;;;;;;;;;;;;16.35;100.00;101108.04;107623;1251;111737;-63
2023/07/08 05:24:23;;;;;;;;;;;;;;;16.45;100.00;101108.86;107573;1251;109338;-64
2023/07/08 05:26:55;;;;;;;;;;;;;;;16.53;100.00;101109.97;107580;1254;107953;-65
2023/07/08 05:29:23;;;;;;;;;;;;;;;16.62;100.00;101109.06;107553;1251;97828;-63
2023/07/08 05:31:53;;;;;;;;;;;;;;;16.68;100.00;101116.38;107539;1251;97724;-62
2023/07/08 05:34:22;;;;;;;;;;;;;;;16.73;100.00;101115.89;107495;1251;111684;-62
2023/07/08 05:36:56;;;;;;;;;;;;;;;16.74;100.00;101119.90;107578;1250;109188;-62
2023/07/08 05:39:24;;;;;;;;;;;;;;;16.74;100.00;101121.46;107520;1250;107950;-65
2023/07/08 05:41:53;;;;;;;;;;;;;;;16.79;100.00;101123.92;107632;1251;97831;-65
2023/07/08 05:44:24;;;;;;;;;;;;;;;16.84;100.00;101124.73;107606;1251;97692;-65
2023/07/08 05:46:53;;;;;;;;;;;;;;;16.91;100.00;101124.55;107558;1254;113080;-62
2023/07/08 05:49:24;;;;;;;;;;;;;;;16.95;100.00;101124.90;107577;1251;110428;-64
2023/07/08 05:52:05;;;;;;;;;;;;;;;16.95;100.00;101127.29;107495;1251;108101;-61
2023/07/08 05:54:38;;;;;;;;;;;;;;;16.96;99.85;101129.26;107585;1250;97794;-62
2023/07/08 05:57:11;;;;;;;;;;;;;;;16.98;99.70;101129.22;107563;1253;97935;-62
2023/07/08 05:59:39;;;;;;;;;;;;;;;16.98;98.61;101127.04;107563;1254;111280;-61
2023/07/08 06:02:10;;;;;;;;;;;;;;;17.01;98.77;101130.55;107609;1251;110127;-62
2023/07/08 06:04:38;;;;;;;;;;;;;;;17.03;98.18;101127.55;107645;1251;107712;-60
2023/07/08 06:07:06;;;;;;;;;;;;;;;17.04;97.84;101129.66;107574;1250;98037;-60
2023/07/08 06:09:34;;;;;;;;;;;;;;;17.05;96.85;101129.05;107567;1251;97868;-61
2023/07/08 06:12:02;;;;;;;;;;;;;;;17.05;96.43;101130.68;107610;1251;111439;-62
2023/07/08 06:14:30;;;;;;;;;;;;;;;17.05;96.02;101131.06;107607;1255;110050;-62
2023/07/08 06:16:58;;;;;;;;;;;;;;;17.08;95.53;101130.92;107625;1251;107423;-61
2023/07/08 06:19:26;;;;;;;;;;;;;;;17.14;95.36;101132.34;107611;1255;98146;-62
2023/07/08 06:21:54;;;;;;;;;;;;;;;17.20;94.87;101136.55;107641;1253;97835;-61
2023/07/08 06:24:47;;;;;;;;;;;;;;;17.25;94.62;101136.75;107617;1254;111686;-61
2023/07/08 06:27:15;;;;;;;;;;;;;;;17.33;94.48;101132.70;107583;1253;109684;-59
2023/07/08 06:29:44;;;;;;;;;;;;;;;17.39;93.55;101135.41;107598;1254;107319;-61
2023/07/08 06:32:12;;;;;;;;;;;;;;;17.46;93.24;101134.85;107580;1253;97922;-61
2023/07/08 06:34:40;;;;;;;;;;;;;;;17.48;91.97;101136.59;107620;1253;97838;-60
2023/07/08 06:37:08;;;;;;;;;;;;;;;17.51;92.47;101137.09;107457;1251;111741;-60
2023/07/08 06:39:37;;;;;;;;;;;;;;;17.57;91.20;101139.24;107540;1251;109493;-60
2023/07/08 06:42:08;;;;;;;;;;;;;;;17.59;90.26;101144.04;107596;1251;108539;-62
2023/07/08 06:44:49;;;;;;;;;;;;;;;17.61;90.61;101144.38;107594;1250;97861;-61
2023/07/08 06:47:21;;;;;;;;;;;;;;;17.74;91.10;101145.46;107545;1250;98978;-61
2023/07/08 06:49:49;;;;;;;;;;;;;;;17.84;91.51;101148.91;107622;1252;111705;-61
2023/07/08 06:52:17;;;;;;;;;;;;;;;17.94;91.22;101146.84;107602;1251;110543;-61
2023/07/08 06:54:46;;;;;;;;;;;;;;;18.03;91.08;101147.31;107588;1254;106181;-60
2023/07/08 06:57:14;;;;;;;;;;;;;;;18.07;89.39;101150.48;107592;1251;97842;-62
2023/07/08 06:59:42;;;;;;;;;;;;;;;18.09;88.87;101145.01;107594;1251;97769;-63
2023/07/08 07:02:10;;;;;;;;;;;;;;;18.12;87.56;101145.91;107650;1251;111223;-63
2023/07/08 07:04:42;;;;;;;;;;;;;;;18.17;87.36;101144.29;107454;1256;108545;-62
2023/07/08 07:07:10;;;;;;;;;;;;;;;18.28;87.74;101151.38;107592;1255;106863;-60
2023/07/08 07:09:38;;;;;;;;;;;;;;;18.39;87.85;101151.02;107616;1253;97966;-61
2023/07/08 07:12:06;;;;;;;;;;;;;;;18.50;88.10;101150.98;107633;1251;97690;-60
2023/07/08 07:14:35;;;;;;;;;;;;;;;18.60;87.37;101152.32;107613;1251;111994;-63
2023/07/08 07:17:06;;;;;;;;;;;;;;;18.71;87.75;101153.08;107586;1251;108970;-61
2023/07/08 07:19:36;;;;;;;;;;;;;;;18.78;86.39;101155.38;107585;1251;107619;-61
2023/07/08 07:22:04;;;;;;;;;;;;;;;18.84;86.49;101150.02;107572;1251;97691;-61
2023/07/08 07:24:33;;;;;;;;;;;;;;;18.91;86.20;101149.33;107673;1251;97762;-61
2023/07/08 07:27:01;;;;;;;;;;;;;;;19.00;85.96;101159.70;107645;1251;110865;-60
2023/07/08 07:29:37;;;;;;;;;;;;;;;19.09;85.95;101159.73;107598;1256;110071;-61
2023/07/08 07:32:06;;;;;;;;;;;;;;;19.18;85.80;101163.25;107613;1251;107942;-62
2023/07/08 07:34:34;;;;;;;;;;;;;;;19.25;85.48;101159.45;107605;1250;97701;-62
2023/07/08 07:37:02;;;;;;;;;;;;;;;19.31;84.63;101164.01;107571;1250;97811;-62
2023/07/08 07:39:30;;;;;;;;;;;;;;;19.37;84.13;101167.09;107616;1251;112241;-62
2023/07/08 07:41:58;;;;;;;;;;;;;;;19.44;83.79;101167.58;107650;1254;109823;-62
2023/07/08 07:44:26;;;;;;;;;;;;;;;19.55;84.09;101166.95;107548;1251;107758;-62
2023/07/08 07:46:59;;;;;;;;;;;;;;;19.70;84.39;101167.41;107607;1250;98028;-62
2023/07/08 07:49:37;;;;;;;;;;;;;;;19.84;83.98;101171.75;107659;1251;97752;-64
2023/07/08 07:52:06;;;;;;;;;;;;;;;19.92;83.14;101175.46;107565;1254;111183;-63
2023/07/08 07:54:34;;;;;;;;;;;;;;;20.01;83.07;101173.48;107646;1251;110727;-63
2023/07/08 07:57:02;;;;;;;;;;;;;;;20.11;82.53;101181.01;107430;1253;109240;-66
2023/07/08 07:59:31;;;;;;;;;;;;;;;20.16;82.22;101176.73;107422;1253;97826;-61
2023/07/08 08:01:59;;;;;;;;;;;;;;;20.27;81.46;101179.95;106817;1254;1013223;-63
2023/07/08 08:04:27;;;;;;;;;;;;;;;20.31;80.04;101177.45;107634;1254;111482;-62
2023/07/08 08:06:55;;;;;;;;;;;;;;;20.34;79.19;101180.55;107614;1254;109451;-61
2023/07/08 08:09:23;;;;;;;;;;;;;;;20.36;79.81;101181.33;107590;1254;108648;-61
2023/07/08 08:11:52;;;;;;;;;;;;;;;20.42;80.35;101176.95;107583;1255;97892;-63
2023/07/08 08:14:20;;;;;;;;;;;;;;;20.49;80.45;101174.38;107609;1253;97832;-61
2023/07/08 08:16:48;;;;;;;;;;;;;;;20.56;80.46;101174.37;107611;1254;111523;-62
2023/07/08 08:19:16;;;;;;;;;;;;;;;20.65;80.49;101178.31;107635;1254;110443;-61
2023/07/08 08:21:44;;;;;;;;;;;;;;;20.74;78.76;101177.05;107600;1251;107523;-62
2023/07/08 08:24:12;;;;;;;;;;;;;;;20.83;79.19;101179.75;107568;1254;97911;-62
2023/07/08 08:26:40;;;;;;;;;;;;;;;20.93;77.06;101176.83;107606;1252;97942;-61
2023/07/08 08:29:08;;;;;;;;;;;;;;;21.02;77.17;101182.91;107657;1254;111915;-62
2023/07/08 08:31:36;;;;;;;;;;;;;;;21.11;76.78;101180.48;107552;1255;109372;-62
2023/07/08 08:34:04;;;;;;;;;;;;;;;21.20;75.89;101183.13;107600;1255;108798;-61
2023/07/08 08:36:32;;;;;;;;;;;;;;;21.26;73.69;101183.95;107601;1254;97687;-62
2023/07/08 08:39:00;;;;;;;;;;;;;;;21.30;73.02;101187.31;107606;1254;98005;-62
2023/07/08 08:41:33;;;;;;;;;;;;;;;21.33;72.73;101187.84;107588;1253;112264;-62
2023/07/08 08:44:02;;;;;;;;;;;;;;;21.36;72.05;101191.10;107608;1253;110436;-62
2023/07/08 08:46:42;;;;;;;;;;;;;;;21.32;69.83;101189.80;107596;1252;107506;-61
2023/07/08 08:49:13;;;;;;;;;;;;;;;21.29;70.85;101193.27;107629;1253;97817;-63
2023/07/08 08:51:42;;;;;;;;;;;;;;;21.30;71.10;101202.05;107626;1250;97818;-62
2023/07/08 08:54:10;;;;;;;;;;;;;;;21.34;71.76;101202.02;107569;1254;112971;-62
2023/07/08 08:56:50;;;;;;;;;;;;;;;21.36;69.99;101198.25;107637;1254;109021;-63
2023/07/08 08:59:37;;;;;;;;;;;;;;;21.35;68.87;101205.77;107574;1251;108081;-61
2023/07/08 09:02:24;;;;;;;;;;;;;;;21.38;69.37;101203.87;107550;1251;97723;-62
2023/07/08 09:05:03;;;;;;;;;;;;;;;21.36;68.55;101207.14;107589;1253;97881;-62
2023/07/08 09:07:34;;;;;;;;;;;;;;;21.32;69.74;101210.21;107612;1254;111395;-62
2023/07/08 09:10:13;;;;;;;;;;;;;;;21.32;70.45;101212.03;107602;1254;108994;-61
2023/07/08 09:12:41;;;;;;;;;;;;;;;21.35;68.79;101208.52;107567;1254;108246;-63
2023/07/08 09:15:14;;;;;;;;;;;;;;;21.33;69.15;101210.81;107605;1254;97745;-63
2023/07/08 09:17:42;;;;;;;;;;;;;;;21.33;69.30;101213.05;107638;1251;97835;-61
2023/07/08 09:20:24;;;;;;;;;;;;;;;21.37;70.21;101216.02;107642;1251;111859;-63
2023/07/08 09:23:01;;;;;;;;;;;;;;;21.46;69.68;101210.84;107596;1255;109134;-62
2023/07/08 09:25:37;;;;;;;;;;;;;;;21.53;69.97;101210.10;107546;1254;107345;-61
2023/07/08 09:28:06;;;;;;;;;;;;;;;21.63;69.47;101211.18;107598;1251;97839;-62
2023/07/08 09:30:35;;;;;;;;;;;;;;;21.67;68.87;101210.58;107621;1253;98214;-63
2023/07/08 09:33:04;;;;;;;;;;;;;;;21.68;69.48;101212.02;107629;1251;112615;-62
2023/07/08 09:35:45;;;;;;;;;;;;;;;21.76;69.86;101210.42;107635;1251;109593;-62
2023/07/08 09:38:17;;;;;;;;;;;;;;;21.82;68.32;101210.89;107582;1254;109490;-62
2023/07/08 09:40:51;;;;;;;;;;;;;;;21.85;67.54;101209.98;107593;1254;97844;-63
2023/07/08 09:43:22;;;;;;;;;;;;;;;21.94;68.21;101207.80;107637;1251;97931;-63
2023/07/08 09:45:50;;;;;;;;;;;;;;;22.01;68.79;101205.56;107636;1251;112008;-62
2023/07/08 09:48:25;;;;;;;;;;;;;;;22.07;68.99;101204.09;107569;1254;109066;-61
2023/07/08 09:50:54;;;;;;;;;;;;;;;22.10;68.75;101208.31;107587;1253;107913;-64
2023/07/08 09:53:22;;;;;;;;;;;;;;;22.15;68.34;101208.73;107580;1252;97816;-62
2023/07/08 09:55:51;;;;;;;;;;;;;;;22.12;67.14;101205.34;107619;1254;97828;-62
2023/07/08 09:58:27;;;;;;;;;;;;;;;22.13;67.57;101207.12;107587;1253;111046;-63
2023/07/08 10:00:57;;;;;;;;;;;;;;;22.12;66.93;101209.65;107590;1254;109273;-61
2023/07/08 10:03:28;;;;;;;;;;;;;;;22.18;67.64;101208.33;107590;1252;109109;-63
2023/07/08 10:06:00;;;;;;;;;;;;;;;22.26;67.75;101205.98;107648;1255;97820;-61
2023/07/08 10:08:34;;;;;;;;;;;;;;;22.37;67.51;101206.05;107611;1253;97823;-62
2023/07/08 10:11:09;;;;;;;;;;;;;;;22.41;65.46;101206.09;107630;1251;111414;-61
2023/07/08 10:13:37;;;;;;;;;;;;;;;22.45;65.97;101204.64;107604;1252;109440;-61
2023/07/08 10:16:15;;;;;;;;;;;;;;;22.50;64.03;101205.96;107610;1253;108079;-63
2023/07/08 10:18:43;;;;;;;;;;;;;;;22.55;64.46;101204.35;107580;1254;97746;-61
2023/07/08 10:21:14;;;;;;;;;;;;;;;22.65;65.04;101202.44;107573;1254;98073;-61
2023/07/08 10:23:45;;;;;;;;;;;;;;;22.76;64.92;101198.30;107587;1254;112198;-62
2023/07/08 10:26:27;;;;;;;;;;;;;;;22.76;63.35;101195.20;107594;1256;110150;-61
2023/07/08 10:29:03;;;;;;;;;;;;;;;22.81;63.30;101195.39;107587;1254;107376;-61
2023/07/08 10:31:40;;;;;;;;;;;;;;;22.90;63.71;101199.12;107573;1253;97848;-63
2023/07/08 10:34:08;;;;;;;;;;;;;;;23.04;64.09;101197.30;107577;1256;97688;-63
2023/07/08 10:36:36;;;;;;;;;;;;;;;23.14;64.33;101194.21;107612;1253;112233;-63
2023/07/08 10:39:16;;;;;;;;;;;;;;;23.22;64.41;101192.66;107637;1254;109796;-63
2023/07/08 10:41:44;;;;;;;;;;;;;;;23.29;63.79;101187.34;107532;1254;107589;-61
2023/07/08 10:44:19;;;;;;;;;;;;;;;23.32;62.23;101185.30;107566;1254;97796;-61
2023/07/08 10:46:56;;;;;;;;;;;;;;;23.32;61.58;101183.11;107611;1254;97814;-62
2023/07/08 10:49:31;;;;;;;;;;;;;;;23.27;59.46;101188.30;107624;1254;111875;-64
2023/07/08 10:52:10;;;;;;;;;;;;;;;23.23;58.78;101185.95;107691;1251;109781;-65
2023/07/08 10:54:53;;;;;;;;;;;;;;;23.21;59.59;101187.33;107658;1251;107577;-63
2023/07/08 10:57:24;;;;;;;;;;;;;;;23.23;59.21;101185.51;107578;1251;97826;-63
2023/07/08 10:59:52;;;;;;;;;;;;;;;23.25;57.97;101186.23;107689;1251;97806;-64
2023/07/08 11:02:20;;;;;;;;;;;;;;;23.21;56.24;101185.05;107618;1251;111425;-62
2023/07/08 11:04:48;;;;;;;;;;;;;;;23.14;56.37;101180.16;107650;1250;110936;-61
2023/07/08 11:07:26;;;;;;;;;;;;;;;23.10;56.20;101180.76;107559;1254;105892;-62
2023/07/08 11:10:00;;;;;;;;;;;;;;;23.08;57.03;101180.46;107611;1252;97873;-62
2023/07/08 11:12:38;;;;;;;;;;;;;;;23.10;56.56;101179.48;107555;1254;97901;-62
2023/07/08 11:15:30;;;;;;;;;;;;;;;23.05;55.24;101177.38;107596;1254;112130;-62
2023/07/08 11:18:00;;;;;;;;;;;;;;;23.02;55.04;101173.19;107635;1251;108953;-63
2023/07/08 11:20:38;;;;;;;;;;;;;;;23.01;55.13;101173.35;107649;1251;108679;-62
2023/07/08 11:23:24;;;;;;;;;;;;;;;23.07;55.53;101174.25;107616;1251;97905;-63
2023/07/08 11:25:59;;;;;;;;;;;;;;;23.11;55.26;101168.50;107624;1251;97808;-61
2023/07/08 11:28:27;;;;;;;;;;;;;;;23.10;54.67;101170.98;107641;1251;111090;-63
2023/07/08 11:30:58;;;;;;;;;;;;;;;23.10;54.69;101173.70;107652;1251;109585;-63
2023/07/08 11:33:30;;;;;;;;;;;;;;;23.05;53.81;101167.36;107601;1251;108646;-64
2023/07/08 11:36:03;;;;;;;;;;;;;;;22.98;53.10;101163.17;107624;1251;97826;-61
2023/07/08 11:38:34;;;;;;;;;;;;;;;22.93;53.58;101163.55;107664;1251;97886;-60
2023/07/08 11:41:04;;;;;;;;;;;;;;;22.92;53.51;101162.23;107649;1251;110498;-62
2023/07/08 11:43:42;;;;;;;;;;;;;;;22.91;53.14;101160.63;107613;1251;109350;-62
2023/07/08 11:46:14;;;;;;;;;;;;;;;22.94;53.99;101161.83;107593;1251;107736;-63
2023/07/08 11:48:45;;;;;;;;;;;;;;;23.00;54.18;101160.27;107604;1251;97810;-60
2023/07/08 11:51:18;;;;;;;;;;;;;;;23.06;53.86;101160.39;107604;1251;97817;-61
2023/07/08 11:53:48;;;;;;;;;;;;;;;23.09;53.20;101156.80;107636;1250;110726;-61
2023/07/08 11:56:16;;;;;;;;;;;;;;;23.08;52.44;101149.25;107618;1253;110054;-62
2023/07/08 11:59:04;;;;;;;;;;;;;;;23.11;53.38;101142.83;107588;1250;108652;-62
2023/07/08 12:01:37;;;;;;;;;;;;;;;23.20;53.40;101143.41;107560;1251;97848;-63
2023/07/08 12:04:09;;;;;;;;;;;;;;;23.27;52.92;101137.85;107651;1251;97822;-62
2023/07/08 12:06:37;;;;;;;;;;;;;;;23.28;52.18;101138.19;107575;1254;112010;-63
2023/07/08 12:09:14;;;;;;;;;;;;;;;23.29;52.08;101136.48;107689;1251;108905;-62
2023/07/08 12:11:47;;;;;;;;;;;;;;;23.35;51.86;101135.52;107588;1253;107225;-60
2023/07/08 12:14:16;;;;;;;;;;;;;;;23.41;52.16;101132.48;107661;1250;97921;-61
2023/07/08 12:16:44;;;;;;;;;;;;;;;23.48;52.31;101138.29;107635;1251;97713;-61
2023/07/08 12:19:15;;;;;;;;;;;;;;;23.57;52.17;101137.00;107660;1251;111147;-62
2023/07/08 12:21:43;;;;;;;;;;;;;;;23.63;51.71;101137.63;107635;1251;111129;-63
2023/07/08 12:24:13;;;;;;;;;;;;;;;23.72;52.32;101135.34;107592;1251;108395;-61
2023/07/08 12:26:41;;;;;;;;;;;;;;;23.82;50.75;101127.58;107569;1251;97901;-62
2023/07/08 12:29:13;;;;;;;;;;;;;;;23.83;49.91;101130.61;107592;1254;97815;-62
2023/07/08 12:31:45;;;;;;;;;;;;;;;23.83;49.68;101128.08;107588;1252;111861;-61
2023/07/08 12:34:14;;;;;;;;;;;;;;;23.86;50.03;101132.08;107684;1254;109588;-62